This is the latest recevied weather packets stored in our database for station/object K4ZZR. If no packets are shown the sender has not sent any weather packets the latest 10 day(s).
| Time | Temp. | Humidity | Pressure | Rain* | Wind** | Luminosity | Snow |
|---|---|---|---|---|---|---|---|
| 1778076482 | 27.22° C | 82% | 1016.8 hPa | 0 mm | - | 415 W/m² | - |
| 1778076178 | 26.67° C | 85% | 1016.7 hPa | 0 mm | - | 555 W/m² | - |
| 1778075875 | 26.67° C | 85% | 1016.8 hPa | 0 mm | - | 475 W/m² | - |
| 1778075571 | 26.67° C | 83% | 1016.9 hPa | 0 mm | - | 401 W/m² | - |
| 1778075268 | 26.67° C | 83% | 1017.2 hPa | 0 mm | - | 426 W/m² | - |
| 1778074965 | 26.11° C | 85% | 1017.1 hPa | 0 mm | - | 478 W/m² | - |
| 1778074662 | 26.11° C | 85% | 1016.8 hPa | 0 mm | - | 333 W/m² | - |
| 1778074358 | 26.11° C | 85% | 1016.8 hPa | 0 mm | - | 282 W/m² | - |
| 1778074055 | 26.11° C | 85% | 1016.9 hPa | 0 mm | - | 283 W/m² | - |
| 1778073753 | 26.11° C | 85% | 1016.8 hPa | 0 mm | - | 267 W/m² | - |
| 1778073451 | 26.11° C | 85% | 1016.6 hPa | 0 mm | - | 304 W/m² | - |
| 1778073146 | 26.67° C | 85% | 1016.5 hPa | 0 mm | - | 286 W/m² | - |
| 1778072843 | 25.56° C | 87% | 1016.7 hPa | 0 mm | - | 320 W/m² | - |
| 1778072540 | 25.56° C | 87% | 1016.4 hPa | 0 mm | - | 190 W/m² | - |
| 1778072238 | 26.11° C | 86% | 1016.5 hPa | 0 mm | - | 205 W/m² | - |
| 1778071936 | 26.11° C | 85% | 1016.4 hPa | 0 mm | - | 292 W/m² | - |
| 1778071634 | 26.11° C | 84% | 1016.4 hPa | 0 mm | - | 270 W/m² | - |
| 1778071332 | 26.11° C | 85% | 1016.3 hPa | 0 mm | - | 319 W/m² | - |
| 1778071028 | 25.56° C | 86% | 1016.1 hPa | 0 mm | - | 246 W/m² | - |
| 1778070728 | 25.56° C | 87% | 1016.2 hPa | 0 mm | - | 158 W/m² | - |
| 1778070424 | 25.56° C | 89% | 1016.3 hPa | 0 mm | - | 174 W/m² | - |
| 1778070121 | 25° C | 89% | 1016.3 hPa | 0 mm | - | 132 W/m² | - |
| 1778069819 | 25° C | 89% | 1016.4 hPa | 0 mm | - | 113 W/m² | - |
| 1778069515 | 25° C | 90% | 1016.2 hPa | 0 mm | - | 118 W/m² | - |
| 1778069213 | 25° C | 91% | 1016.3 hPa | 0 mm | - | 125 W/m² | - |
* Rain latest hour (hover to see other rain measurements)
** Current wind speed in m/s (hover to see current wind gust speed)